sensor_id;sensor_type;location;lat;lon;timestamp;pressure;altitude;pressure_sealevel;temperature;humidity
36828;BME280;22766;48.042;11.192;2022-07-10T00:02:20;95625.53;;;17.06;100.00
36828;BME280;22766;48.042;11.192;2022-07-10T00:04:46;95628.59;;;17.09;99.71
36828;BME280;22766;48.042;11.192;2022-07-10T00:07:13;95635.63;;;17.09;99.65
36828;BME280;22766;48.042;11.192;2022-07-10T00:09:40;95630.41;;;17.09;100.00
36828;BME280;22766;48.042;11.192;2022-07-10T00:12:06;95632.56;;;17.05;100.00
36828;BME280;22766;48.042;11.192;2022-07-10T00:14:33;95633.38;;;17.06;100.00
36828;BME280;22766;48.042;11.192;2022-07-10T00:17:00;95636.22;;;16.96;100.00
36828;BME280;22766;48.042;11.192;2022-07-10T00:19:26;95643.41;;;16.94;100.00
36828;BME280;22766;48.042;11.192;2022-07-10T00:21:53;95650.66;;;16.84;100.00
36828;BME280;22766;48.042;11.192;2022-07-10T00:24:20;95648.91;;;16.76;100.00
36828;BME280;22766;48.042;11.192;2022-07-10T00:26:46;95642.69;;;16.55;100.00
36828;BME280;22766;48.042;11.192;2022-07-10T00:29:14;95646.66;;;16.43;100.00
36828;BME280;22766;48.042;11.192;2022-07-10T00:31:41;95657.63;;;16.30;100.00
36828;BME280;22766;48.042;11.192;2022-07-10T00:34:08;95652.47;;;16.22;100.00
36828;BME280;22766;48.042;11.192;2022-07-10T00:36:34;95658.41;;;16.08;100.00
36828;BME280;22766;48.042;11.192;2022-07-10T00:39:02;95649.94;;;16.06;100.00
36828;BME280;22766;48.042;11.192;2022-07-10T00:41:28;95654.69;;;16.03;100.00
36828;BME280;22766;48.042;11.192;2022-07-10T00:43:59;95657.97;;;15.97;100.00
36828;BME280;22766;48.042;11.192;2022-07-10T00:46:26;95657.66;;;15.92;100.00
36828;BME280;22766;48.042;11.192;2022-07-10T00:48:54;95652.94;;;15.95;100.00
36828;BME280;22766;48.042;11.192;2022-07-10T00:51:24;95647.72;;;15.95;100.00
36828;BME280;22766;48.042;11.192;2022-07-10T00:53:51;95644.13;;;15.96;100.00
36828;BME280;22766;48.042;11.192;2022-07-10T00:56:21;95640.09;;;15.94;100.00
36828;BME280;22766;48.042;11.192;2022-07-10T00:58:49;95641.41;;;15.89;100.00
36828;BME280;22766;48.042;11.192;2022-07-10T01:01:17;95636.97;;;15.90;100.00
36828;BME280;22766;48.042;11.192;2022-07-10T01:03:44;95637.16;;;15.88;100.00
36828;BME280;22766;48.042;11.192;2022-07-10T01:06:12;95634.91;;;15.77;100.00
36828;BME280;22766;48.042;11.192;2022-07-10T01:08:39;95632.16;;;15.71;100.00
36828;BME280;22766;48.042;11.192;2022-07-10T01:11:07;95633.66;;;15.65;100.00
36828;BME280;22766;48.042;11.192;2022-07-10T01:13:35;95621.81;;;15.63;100.00
36828;BME280;22766;48.042;11.192;2022-07-10T01:16:02;95623.31;;;15.49;100.00
36828;BME280;22766;48.042;11.192;2022-07-10T01:18:29;95629.16;;;15.43;100.00
36828;BME280;22766;48.042;11.192;2022-07-10T01:20:56;95625.25;;;15.47;100.00
36828;BME280;22766;48.042;11.192;2022-07-10T01:23:23;95623.44;;;15.56;100.00
36828;BME280;22766;48.042;11.192;2022-07-10T01:25:50;95618.72;;;15.59;100.00
36828;BME280;22766;48.042;11.192;2022-07-10T01:28:17;95616.44;;;15.56;100.00
36828;BME280;22766;48.042;11.192;2022-07-10T01:30:43;95626.84;;;15.56;100.00
36828;BME280;22766;48.042;11.192;2022-07-10T01:33:10;95630.00;;;15.44;100.00
36828;BME280;22766;48.042;11.192;2022-07-10T01:35:37;95636.31;;;15.41;100.00
36828;BME280;22766;48.042;11.192;2022-07-10T01:38:04;95621.34;;;15.35;100.00
36828;BME280;22766;48.042;11.192;2022-07-10T01:40:31;95620.22;;;15.22;100.00
36828;BME280;22766;48.042;11.192;2022-07-10T01:42:57;95628.19;;;15.20;100.00
36828;BME280;22766;48.042;11.192;2022-07-10T01:45:25;95622.81;;;15.22;100.00
36828;BME280;22766;48.042;11.192;2022-07-10T01:47:52;95619.25;;;15.23;100.00
36828;BME280;22766;48.042;11.192;2022-07-10T01:50:19;95621.38;;;15.11;100.00
36828;BME280;22766;48.042;11.192;2022-07-10T01:52:45;95620.44;;;14.96;100.00
36828;BME280;22766;48.042;11.192;2022-07-10T01:55:12;95620.94;;;14.83;100.00
36828;BME280;22766;48.042;11.192;2022-07-10T01:57:39;95609.38;;;14.94;100.00
36828;BME280;22766;48.042;11.192;2022-07-10T02:00:06;95607.09;;;15.07;100.00
36828;BME280;22766;48.042;11.192;2022-07-10T02:02:42;95598.97;;;15.02;100.00
36828;BME280;22766;48.042;11.192;2022-07-10T02:05:29;95595.41;;;14.87;100.00
36828;BME280;22766;48.042;11.192;2022-07-10T02:07:56;95595.91;;;14.90;100.00
36828;BME280;22766;48.042;11.192;2022-07-10T02:10:23;95598.81;;;14.87;100.00
36828;BME280;22766;48.042;11.192;2022-07-10T02:12:49;95595.59;;;14.77;100.00
36828;BME280;22766;48.042;11.192;2022-07-10T02:15:16;95597.34;;;14.69;100.00
36828;BME280;22766;48.042;11.192;2022-07-10T02:17:42;95595.75;;;14.68;100.00
36828;BME280;22766;48.042;11.192;2022-07-10T02:20:09;95598.19;;;14.69;100.00
36828;BME280;22766;48.042;11.192;2022-07-10T02:22:37;95602.56;;;14.69;100.00
36828;BME280;22766;48.042;11.192;2022-07-10T02:25:04;95598.00;;;14.71;100.00
36828;BME280;22766;48.042;11.192;2022-07-10T02:27:31;95603.69;;;14.74;100.00
36828;BME280;22766;48.042;11.192;2022-07-10T02:29:57;95606.94;;;14.76;100.00
36828;BME280;22766;48.042;11.192;2022-07-10T02:32:24;95601.41;;;14.63;100.00
36828;BME280;22766;48.042;11.192;2022-07-10T02:34:51;95587.78;;;14.61;100.00
36828;BME280;22766;48.042;11.192;2022-07-10T02:37:17;95593.75;;;14.46;100.00
36828;BME280;22766;48.042;11.192;2022-07-10T02:39:44;95593.13;;;14.44;100.00
36828;BME280;22766;48.042;11.192;2022-07-10T02:42:10;95589.06;;;14.41;100.00
36828;BME280;22766;48.042;11.192;2022-07-10T02:44:37;95596.22;;;14.47;100.00
36828;BME280;22766;48.042;11.192;2022-07-10T02:47:04;95590.84;;;14.41;100.00
36828;BME280;22766;48.042;11.192;2022-07-10T02:49:30;95598.16;;;14.37;100.00
36828;BME280;22766;48.042;11.192;2022-07-10T02:51:57;95595.72;;;14.28;100.00
36828;BME280;22766;48.042;11.192;2022-07-10T02:54:24;95595.72;;;14.28;100.00
36828;BME280;22766;48.042;11.192;2022-07-10T02:56:51;95593.38;;;14.25;100.00
36828;BME280;22766;48.042;11.192;2022-07-10T02:59:18;95597.28;;;14.21;100.00
36828;BME280;22766;48.042;11.192;2022-07-10T03:01:44;95603.78;;;14.17;100.00
36828;BME280;22766;48.042;11.192;2022-07-10T03:04:11;95605.69;;;14.06;100.00
36828;BME280;22766;48.042;11.192;2022-07-10T03:06:38;95603.41;;;14.03;100.00
36828;BME280;22766;48.042;11.192;2022-07-10T03:09:04;95610.81;;;13.90;100.00
36828;BME280;22766;48.042;11.192;2022-07-10T03:11:31;95608.22;;;13.82;100.00
36828;BME280;22766;48.042;11.192;2022-07-10T03:13:58;95606.41;;;13.83;100.00
36828;BME280;22766;48.042;11.192;2022-07-10T03:16:24;95608.06;;;13.84;100.00
36828;BME280;22766;48.042;11.192;2022-07-10T03:18:51;95615.34;;;13.80;100.00
36828;BME280;22766;48.042;11.192;2022-07-10T03:21:18;95611.28;;;13.78;100.00
36828;BME280;22766;48.042;11.192;2022-07-10T03:23:44;95612.06;;;13.70;100.00
36828;BME280;22766;48.042;11.192;2022-07-10T03:26:11;95603.31;;;13.71;100.00
36828;BME280;22766;48.042;11.192;2022-07-10T03:28:38;95602.78;;;13.68;100.00
36828;BME280;22766;48.042;11.192;2022-07-10T03:31:05;95603.59;;;13.68;100.00
36828;BME280;22766;48.042;11.192;2022-07-10T03:33:31;95599.91;;;13.71;100.00
36828;BME280;22766;48.042;11.192;2022-07-10T03:35:58;95603.16;;;13.73;100.00
36828;BME280;22766;48.042;11.192;2022-07-10T03:38:27;95608.84;;;13.76;100.00
36828;BME280;22766;48.042;11.192;2022-07-10T03:40:54;95600.41;;;13.74;100.00
36828;BME280;22766;48.042;11.192;2022-07-10T03:43:20;95602.66;;;13.69;100.00
36828;BME280;22766;48.042;11.192;2022-07-10T03:45:47;95601.19;;;13.67;100.00
36828;BME280;22766;48.042;11.192;2022-07-10T03:48:14;95599.41;;;13.67;100.00
36828;BME280;22766;48.042;11.192;2022-07-10T03:50:40;95607.97;;;13.68;100.00
36828;BME280;22766;48.042;11.192;2022-07-10T03:53:07;95608.34;;;13.73;100.00
36828;BME280;22766;48.042;11.192;2022-07-10T03:55:34;95607.06;;;13.77;100.00
36828;BME280;22766;48.042;11.192;2022-07-10T03:58:00;95610.66;;;13.84;100.00
36828;BME280;22766;48.042;11.192;2022-07-10T04:00:30;95612.63;;;13.90;100.00
36828;BME280;22766;48.042;11.192;2022-07-10T04:03:05;95602.09;;;13.99;100.00
36828;BME280;22766;48.042;11.192;2022-07-10T04:05:33;95611.19;;;13.95;100.00
36828;BME280;22766;48.042;11.192;2022-07-10T04:08:01;95604.88;;;14.06;100.00
36828;BME280;22766;48.042;11.192;2022-07-10T04:10:29;95599.22;;;14.11;100.00
36828;BME280;22766;48.042;11.192;2022-07-10T04:12:57;95604.56;;;14.17;100.00
36828;BME280;22766;48.042;11.192;2022-07-10T04:15:25;95603.59;;;14.18;100.00
36828;BME280;22766;48.042;11.192;2022-07-10T04:17:52;95602.78;;;14.18;100.00
36828;BME280;22766;48.042;11.192;2022-07-10T04:20:19;95601.34;;;14.23;100.00
36828;BME280;22766;48.042;11.192;2022-07-10T04:22:46;95590.78;;;14.25;100.00
36828;BME280;22766;48.042;11.192;2022-07-10T04:25:13;95583.03;;;14.33;100.00
36828;BME280;22766;48.042;11.192;2022-07-10T04:27:39;95586.63;;;14.32;100.00
36828;BME280;22766;48.042;11.192;2022-07-10T04:30:07;95577.38;;;14.37;100.00
36828;BME280;22766;48.042;11.192;2022-07-10T04:32:34;95583.22;;;14.39;100.00
36828;BME280;22766;48.042;11.192;2022-07-10T04:35:00;95583.53;;;14.36;100.00
36828;BME280;22766;48.042;11.192;2022-07-10T04:37:27;95591.97;;;14.38;100.00
36828;BME280;22766;48.042;11.192;2022-07-10T04:39:55;95587.25;;;14.42;100.00
36828;BME280;22766;48.042;11.192;2022-07-10T04:42:24;95584.03;;;14.56;100.00
36828;BME280;22766;48.042;11.192;2022-07-10T04:44:52;95592.00;;;14.62;100.00
36828;BME280;22766;48.042;11.192;2022-07-10T04:47:19;95592.97;;;14.61;100.00
36828;BME280;22766;48.042;11.192;2022-07-10T04:49:46;95588.28;;;14.57;100.00
36828;BME280;22766;48.042;11.192;2022-07-10T04:52:12;95592.31;;;14.59;100.00
36828;BME280;22766;48.042;11.192;2022-07-10T04:54:39;95588.91;;;14.59;100.00
36828;BME280;22766;48.042;11.192;2022-07-10T04:57:05;95596.88;;;14.57;100.00
36828;BME280;22766;48.042;11.192;2022-07-10T04:59:32;95592.97;;;14.53;100.00
36828;BME280;22766;48.042;11.192;2022-07-10T05:01:59;95602.22;;;14.56;100.00
36828;BME280;22766;48.042;11.192;2022-07-10T05:04:25;95596.38;;;14.62;100.00
36828;BME280;22766;48.042;11.192;2022-07-10T05:06:52;95593.78;;;14.70;100.00
36828;BME280;22766;48.042;11.192;2022-07-10T05:09:19;95604.97;;;14.70;100.00
36828;BME280;22766;48.042;11.192;2022-07-10T05:11:46;95605.31;;;14.67;100.00
36828;BME280;22766;48.042;11.192;2022-07-10T05:14:13;95598.19;;;14.77;100.00
36828;BME280;22766;48.042;11.192;2022-07-10T05:16:40;95600.78;;;14.77;100.00
36828;BME280;22766;48.042;11.192;2022-07-10T05:19:07;95599.97;;;14.85;100.00
36828;BME280;22766;48.042;11.192;2022-07-10T05:21:34;95614.09;;;14.82;100.00
36828;BME280;22766;48.042;11.192;2022-07-10T05:24:00;95614.09;;;14.82;100.00
36828;BME280;22766;48.042;11.192;2022-07-10T05:26:27;95614.44;;;14.79;100.00
36828;BME280;22766;48.042;11.192;2022-07-10T05:28:54;95620.94;;;14.83;100.00
36828;BME280;22766;48.042;11.192;2022-07-10T05:31:20;95619.13;;;14.84;100.00
36828;BME280;22766;48.042;11.192;2022-07-10T05:33:47;95620.59;;;14.86;100.00
36828;BME280;22766;48.042;11.192;2022-07-10T05:36:14;95625.44;;;14.89;100.00
36828;BME280;22766;48.042;11.192;2022-07-10T05:38:40;95623.50;;;14.91;100.00
36828;BME280;22766;48.042;11.192;2022-07-10T05:41:07;95624.00;;;14.87;100.00
36828;BME280;22766;48.042;11.192;2022-07-10T05:43:34;95627.91;;;14.91;100.00
36828;BME280;22766;48.042;11.192;2022-07-10T05:46:01;95629.53;;;14.92;100.00
36828;BME280;22766;48.042;11.192;2022-07-10T05:48:28;95628.53;;;15.01;100.00
36828;BME280;22766;48.042;11.192;2022-07-10T05:50:54;95627.41;;;15.12;100.00
36828;BME280;22766;48.042;11.192;2022-07-10T05:53:41;95619.09;;;15.16;100.00
36828;BME280;22766;48.042;11.192;2022-07-10T05:56:08;95626.09;;;15.16;100.00
36828;BME280;22766;48.042;11.192;2022-07-10T05:58:34;95621.56;;;15.18;100.00
36828;BME280;22766;48.042;11.192;2022-07-10T06:01:01;95619.56;;;15.20;100.00
36828;BME280;22766;48.042;11.192;2022-07-10T06:03:28;95623.66;;;15.22;100.00
36828;BME280;22766;48.042;11.192;2022-07-10T06:05:55;95627.25;;;15.21;100.00
36828;BME280;22766;48.042;11.192;2022-07-10T06:08:22;95622.34;;;15.26;100.00
36828;BME280;22766;48.042;11.192;2022-07-10T06:10:48;95627.19;;;15.29;100.00
36828;BME280;22766;48.042;11.192;2022-07-10T06:13:15;95625.75;;;15.43;100.00
36828;BME280;22766;48.042;11.192;2022-07-10T06:15:41;95629.16;;;15.35;100.00
36828;BME280;22766;48.042;11.192;2022-07-10T06:18:09;95630.00;;;15.44;100.00
36828;BME280;22766;48.042;11.192;2022-07-10T06:20:36;95628.97;;;15.37;100.00
36828;BME280;22766;48.042;11.192;2022-07-10T06:23:02;95626.88;;;15.40;100.00
36828;BME280;22766;48.042;11.192;2022-07-10T06:25:29;95621.34;;;15.51;100.00
36828;BME280;22766;48.042;11.192;2022-07-10T06:27:56;95622.31;;;15.50;100.00
36828;BME280;22766;48.042;11.192;2022-07-10T06:30:22;95638.25;;;15.55;100.00
36828;BME280;22766;48.042;11.192;2022-07-10T06:32:49;95636.31;;;15.57;100.00
36828;BME280;22766;48.042;11.192;2022-07-10T06:35:16;95632.03;;;15.64;100.00
36828;BME280;22766;48.042;11.192;2022-07-10T06:37:42;95634.94;;;15.69;100.00
36828;BME280;22766;48.042;11.192;2022-07-10T06:40:12;95629.50;;;15.87;100.00
36828;BME280;22766;48.042;11.192;2022-07-10T06:42:40;95628.41;;;15.81;100.00
36828;BME280;22766;48.042;11.192;2022-07-10T06:45:11;95628.25;;;15.75;100.00
36828;BME280;22766;48.042;11.192;2022-07-10T06:47:37;95630.66;;;15.84;100.00
36828;BME280;22766;48.042;11.192;2022-07-10T06:50:26;95636.66;;;15.93;100.00
36828;BME280;22766;48.042;11.192;2022-07-10T06:52:53;95632.84;;;16.04;100.00
36828;BME280;22766;48.042;11.192;2022-07-10T06:55:20;95639.69;;;16.05;100.00
36828;BME280;22766;48.042;11.192;2022-07-10T06:57:47;95645.13;;;15.95;100.00
36828;BME280;22766;48.042;11.192;2022-07-10T07:00:14;95648.69;;;15.94;100.00
36828;BME280;22766;48.042;11.192;2022-07-10T07:02:42;95649.53;;;15.86;100.00
36828;BME280;22766;48.042;11.192;2022-07-10T07:05:09;95649.03;;;15.91;100.00
36828;BME280;22766;48.042;11.192;2022-07-10T07:07:36;95648.59;;;15.79;100.00
36828;BME280;22766;48.042;11.192;2022-07-10T07:10:04;95636.84;;;15.83;100.00
36828;BME280;22766;48.042;11.192;2022-07-10T07:12:31;95648.94;;;15.76;100.00
36828;BME280;22766;48.042;11.192;2022-07-10T07:14:58;95652.19;;;15.70;100.00
36828;BME280;22766;48.042;11.192;2022-07-10T07:17:24;95645.34;;;15.69;100.00
36828;BME280;22766;48.042;11.192;2022-07-10T07:20:00;95644.56;;;15.69;100.00
36828;BME280;22766;48.042;11.192;2022-07-10T07:22:46;95638.34;;;15.78;100.00
36828;BME280;22766;48.042;11.192;2022-07-10T07:25:31;95643.75;;;16.07;100.00
36828;BME280;22766;48.042;11.192;2022-07-10T07:27:58;95643.88;;;16.52;100.00
36828;BME280;22766;48.042;11.192;2022-07-10T07:30:25;95648.66;;;17.09;100.00
36828;BME280;22766;48.042;11.192;2022-07-10T07:32:54;95651.34;;;17.38;100.00
36828;BME280;22766;48.042;11.192;2022-07-10T07:35:21;95652.72;;;17.48;100.00
36828;BME280;22766;48.042;11.192;2022-07-10T07:37:49;95655.25;;;17.19;100.00
36828;BME280;22766;48.042;11.192;2022-07-10T07:40:20;95652.75;;;17.26;100.00
36828;BME280;22766;48.042;11.192;2022-07-10T07:42:50;95660.66;;;16.95;100.00
36828;BME280;22766;48.042;11.192;2022-07-10T07:45:17;95659.28;;;16.85;100.00
36828;BME280;22766;48.042;11.192;2022-07-10T07:47:56;95663.69;;;16.84;100.00
36828;BME280;22766;48.042;11.192;2022-07-10T07:50:25;95660.22;;;16.92;100.00
36828;BME280;22766;48.042;11.192;2022-07-10T07:52:53;95663.56;;;17.00;100.00
36828;BME280;22766;48.042;11.192;2022-07-10T07:55:22;95661.31;;;16.74;100.00
36828;BME280;22766;48.042;11.192;2022-07-10T07:57:53;95658.88;;;16.73;100.00
36828;BME280;22766;48.042;11.192;2022-07-10T08:00:21;95661.41;;;16.58;100.00
36828;BME280;22766;48.042;11.192;2022-07-10T08:02:50;95659.69;;;16.73;100.00
36828;BME280;22766;48.042;11.192;2022-07-10T08:05:18;95654.84;;;17.08;100.00
36828;BME280;22766;48.042;11.192;2022-07-10T08:07:51;95659.31;;;17.22;100.00
36828;BME280;22766;48.042;11.192;2022-07-10T08:10:20;95659.16;;;17.01;100.00
36828;BME280;22766;48.042;11.192;2022-07-10T08:12:48;95666.28;;;17.07;100.00
36828;BME280;22766;48.042;11.192;2022-07-10T08:15:16;95658.19;;;17.02;100.00
36828;BME280;22766;48.042;11.192;2022-07-10T08:17:47;95662.63;;;17.16;100.00
36828;BME280;22766;48.042;11.192;2022-07-10T08:20:14;95668.47;;;17.18;100.00
36828;BME280;22766;48.042;11.192;2022-07-10T08:22:42;95659.06;;;17.46;100.00
36828;BME280;22766;48.042;11.192;2022-07-10T08:25:10;95658.13;;;17.61;100.00
36828;BME280;22766;48.042;11.192;2022-07-10T08:27:37;95654.09;;;17.73;100.00
36828;BME280;22766;48.042;11.192;2022-07-10T08:30:05;95658.50;;;18.02;100.00
36828;BME280;22766;48.042;11.192;2022-07-10T08:32:32;95652.28;;;18.03;100.00
36828;BME280;22766;48.042;11.192;2022-07-10T08:34:59;95663.47;;;18.12;100.00
36828;BME280;22766;48.042;11.192;2022-07-10T08:37:26;95658.59;;;18.23;100.00
36828;BME280;22766;48.042;11.192;2022-07-10T08:39:52;95659.69;;;18.64;100.00
36828;BME280;22766;48.042;11.192;2022-07-10T08:42:20;95654.50;;;18.50;100.00
36828;BME280;22766;48.042;11.192;2022-07-10T08:44:47;95660.13;;;18.03;100.00
36828;BME280;22766;48.042;11.192;2022-07-10T08:47:14;95653.72;;;17.77;100.00
36828;BME280;22766;48.042;11.192;2022-07-10T08:49:48;95647.78;;;17.83;100.00
36828;BME280;22766;48.042;11.192;2022-07-10T08:55:26;95646.53;;;19.00;100.00
36828;BME280;22766;48.042;11.192;2022-07-10T08:57:54;95640.94;;;19.52;99.63
36828;BME280;22766;48.042;11.192;2022-07-10T09:00:24;95638.81;;;19.62;96.44
36828;BME280;22766;48.042;11.192;2022-07-10T09:02:53;95643.47;;;19.18;98.47
36828;BME280;22766;48.042;11.192;2022-07-10T09:05:20;95640.81;;;18.90;100.00
36828;BME280;22766;48.042;11.192;2022-07-10T09:07:46;95648.75;;;19.24;100.00
36828;BME280;22766;48.042;11.192;2022-07-10T09:10:13;95644.41;;;19.59;98.32
36828;BME280;22766;48.042;11.192;2022-07-10T09:12:59;95636.47;;;19.80;96.57
36828;BME280;22766;48.042;11.192;2022-07-10T09:15:28;95634.28;;;20.18;93.49
36828;BME280;22766;48.042;11.192;2022-07-10T09:18:02;95636.00;;;20.52;90.22
36828;BME280;22766;48.042;11.192;2022-07-10T09:20:39;95639.06;;;20.14;93.16
36828;BME280;22766;48.042;11.192;2022-07-10T09:25:45;95640.09;;;20.61;90.47
36828;BME280;22766;48.042;11.192;2022-07-10T09:28:17;95636.50;;;20.81;86.00
36828;BME280;22766;48.042;11.192;2022-07-10T09:30:45;95637.34;;;20.34;86.82
36828;BME280;22766;48.042;11.192;2022-07-10T09:35:58;95636.38;;;20.42;83.76
36828;BME280;22766;48.042;11.192;2022-07-10T09:44:06;95631.53;;;20.39;68.46
36828;BME280;22766;48.042;11.192;2022-07-10T09:46:36;95642.06;;;20.45;74.66
36828;BME280;22766;48.042;11.192;2022-07-10T09:49:13;95639.41;;;20.32;71.10
36828;BME280;22766;48.042;11.192;2022-07-10T09:51:42;95633.69;;;20.22;76.42
36828;BME280;22766;48.042;11.192;2022-07-10T09:54:15;95631.47;;;19.85;79.04
36828;BME280;22766;48.042;11.192;2022-07-10T09:56:45;95622.72;;;20.06;73.88
36828;BME280;22766;48.042;11.192;2022-07-10T09:59:20;95629.97;;;20.51;72.99
36828;BME280;22766;48.042;11.192;2022-07-10T10:01:48;95622.97;;;20.78;74.05
36828;BME280;22766;48.042;11.192;2022-07-10T10:04:17;95627.00;;;20.87;71.63
36828;BME280;22766;48.042;11.192;2022-07-10T10:06:50;95632.06;;;20.82;70.78
36828;BME280;22766;48.042;11.192;2022-07-10T10:09:40;95626.25;;;21.52;72.66
36828;BME280;22766;48.042;11.192;2022-07-10T10:12:16;95618.94;;;21.60;69.79
36828;BME280;22766;48.042;11.192;2022-07-10T10:14:44;95619.13;;;21.78;70.03
36828;BME280;22766;48.042;11.192;2022-07-10T10:17:11;95617.31;;;21.66;64.65
36828;BME280;22766;48.042;11.192;2022-07-10T10:19:40;95616.63;;;22.16;64.92
36828;BME280;22766;48.042;11.192;2022-07-10T10:22:25;95612.84;;;21.92;66.51
36828;BME280;22766;48.042;11.192;2022-07-10T10:24:54;95618.19;;;22.23;64.63
36828;BME280;22766;48.042;11.192;2022-07-10T10:27:22;95619.78;;;22.75;65.01
36828;BME280;22766;48.042;11.192;2022-07-10T10:29:50;95615.78;;;22.22;62.36
36828;BME280;22766;48.042;11.192;2022-07-10T10:32:18;95623.09;;;22.13;62.72
36828;BME280;22766;48.042;11.192;2022-07-10T10:34:46;95618.13;;;22.37;66.41
36828;BME280;22766;48.042;11.192;2022-07-10T10:37:36;95618.34;;;21.84;61.19
36828;BME280;22766;48.042;11.192;2022-07-10T10:40:05;95617.91;;;21.74;62.83
36828;BME280;22766;48.042;11.192;2022-07-10T10:48:03;95607.63;;;20.88;60.31
36828;BME280;22766;48.042;11.192;2022-07-10T10:50:52;95607.84;;;20.93;61.67
36828;BME280;22766;48.042;11.192;2022-07-10T10:53:23;95615.16;;;21.04;63.42
36828;BME280;22766;48.042;11.192;2022-07-10T11:03:31;95607.00;;;21.84;58.42
36828;BME280;22766;48.042;11.192;2022-07-10T11:05:57;95605.81;;;21.60;58.47
36828;BME280;22766;48.042;11.192;2022-07-10T11:08:50;95602.59;;;21.45;61.61
36828;BME280;22766;48.042;11.192;2022-07-10T11:13:57;95600.63;;;21.08;63.70
36828;BME280;22766;48.042;11.192;2022-07-10T11:16:24;95594.31;;;21.48;63.51
36828;BME280;22766;48.042;11.192;2022-07-10T11:18:53;95591.63;;;21.81;59.58
36828;BME280;22766;48.042;11.192;2022-07-10T11:21:25;95599.41;;;22.20;57.09
36828;BME280;22766;48.042;11.192;2022-07-10T11:27:24;95589.75;;;23.39;54.75
36828;BME280;22766;48.042;11.192;2022-07-10T11:29:57;95595.97;;;23.44;49.38
36828;BME280;22766;48.042;11.192;2022-07-10T11:32:24;95594.06;;;23.76;53.15
36828;BME280;22766;48.042;11.192;2022-07-10T11:34:51;95596.63;;;24.19;53.94
36828;BME280;22766;48.042;11.192;2022-07-10T11:37:18;95590.75;;;24.35;50.32
36828;BME280;22766;48.042;11.192;2022-07-10T11:39:45;95592.34;;;24.36;49.75
36828;BME280;22766;48.042;11.192;2022-07-10T11:42:12;95594.63;;;23.10;49.05
36828;BME280;22766;48.042;11.192;2022-07-10T11:44:38;95589.41;;;23.29;50.21
36828;BME280;22766;48.042;11.192;2022-07-10T11:47:06;95588.16;;;23.56;53.71
36828;BME280;22766;48.042;11.192;2022-07-10T11:49:34;95582.56;;;24.25;49.41
36828;BME280;22766;48.042;11.192;2022-07-10T11:52:04;95584.25;;;24.01;46.55
36828;BME280;22766;48.042;11.192;2022-07-10T11:54:31;95589.72;;;23.63;46.86
36828;BME280;22766;48.042;11.192;2022-07-10T11:57:05;95592.69;;;22.68;48.26
36828;BME280;22766;48.042;11.192;2022-07-10T11:59:34;95581.84;;;23.39;52.71
36828;BME280;22766;48.042;11.192;2022-07-10T12:02:00;95585.81;;;23.23;49.22
36828;BME280;22766;48.042;11.192;2022-07-10T12:04:29;95575.97;;;23.79;50.44
36828;BME280;22766;48.042;11.192;2022-07-10T12:06:56;95583.44;;;24.37;47.65
36828;BME280;22766;48.042;11.192;2022-07-10T12:09:24;95582.53;;;24.43;48.81
36828;BME280;22766;48.042;11.192;2022-07-10T12:12:05;95578.56;;;24.52;47.99
36828;BME280;22766;48.042;11.192;2022-07-10T12:14:33;95584.66;;;24.64;46.34
36828;BME280;22766;48.042;11.192;2022-07-10T12:17:01;95583.97;;;24.57;44.88
36828;BME280;22766;48.042;11.192;2022-07-10T12:19:36;95580.97;;;24.53;42.57
36828;BME280;22766;48.042;11.192;2022-07-10T12:22:05;95582.25;;;24.80;44.60
36828;BME280;22766;48.042;11.192;2022-07-10T12:24:32;95578.69;;;25.62;41.38
36828;BME280;22766;48.042;11.192;2022-07-10T12:26:59;95585.50;;;26.33;39.76
36828;BME280;22766;48.042;11.192;2022-07-10T12:29:27;95581.31;;;26.76;38.76
36828;BME280;22766;48.042;11.192;2022-07-10T12:31:57;95577.72;;;27.49;37.90
36828;BME280;22766;48.042;11.192;2022-07-10T12:34:40;95574.59;;;27.68;36.39
36828;BME280;22766;48.042;11.192;2022-07-10T12:37:15;95577.81;;;27.37;35.77
36828;BME280;22766;48.042;11.192;2022-07-10T12:39:47;95575.03;;;28.20;35.69
36828;BME280;22766;48.042;11.192;2022-07-10T12:42:24;95573.91;;;27.78;36.27
36828;BME280;22766;48.042;11.192;2022-07-10T12:44:51;95578.63;;;26.48;36.79
36828;BME280;22766;48.042;11.192;2022-07-10T12:47:19;95582.94;;;26.66;39.74
36828;BME280;22766;48.042;11.192;2022-07-10T12:57:48;95581.84;;;25.87;37.26
36828;BME280;22766;48.042;11.192;2022-07-10T13:00:18;95583.25;;;26.13;39.03
36828;BME280;22766;48.042;11.192;2022-07-10T13:02:46;95580.34;;;26.83;35.57
36828;BME280;22766;48.042;11.192;2022-07-10T13:05:27;95572.38;;;28.20;33.31
36828;BME280;22766;48.042;11.192;2022-07-10T13:08:04;95580.88;;;28.92;32.69
36828;BME280;22766;48.042;11.192;2022-07-10T13:10:34;95582.69;;;28.60;31.78
36828;BME280;22766;48.042;11.192;2022-07-10T13:13:03;95578.84;;;28.51;31.51
36828;BME280;22766;48.042;11.192;2022-07-10T13:15:30;95578.38;;;28.81;34.00
36828;BME280;22766;48.042;11.192;2022-07-10T13:17:57;95578.97;;;29.83;30.98
36828;BME280;22766;48.042;11.192;2022-07-10T13:20:24;95577.16;;;29.93;31.90
36828;BME280;22766;48.042;11.192;2022-07-10T13:22:51;95575.13;;;30.15;31.33
36828;BME280;22766;48.042;11.192;2022-07-10T13:25:17;95572.97;;;30.69;30.41
36828;BME280;22766;48.042;11.192;2022-07-10T13:27:44;95581.41;;;29.94;30.54
36828;BME280;22766;48.042;11.192;2022-07-10T13:30:11;95582.44;;;30.35;30.13
36828;BME280;22766;48.042;11.192;2022-07-10T13:32:38;95579.03;;;30.55;28.72